Terminal Aerodrome Forecast
Issued by NWS

Current Version | Previous Version | Graphics & Text | Print | Product List | Glossary On
Versions: 1 2 3 4 5 6 7 8 9 10 11 12 13 14 15 16 17 18
000
FTUS41 KPBZ 181735
TAFHLG
TAF
KHLG 181735Z 1818/1918 22004KT P6SM SKC
     FM190000 35002KT P6SM VCSH BKN040
     FM190400 01010KT P6SM -SHRA OVC020
     FM191100 30012G20KT 3SM -SHSN OVC020=

USA.gov is the U.S. government's official web portal to all federal, state and local government web resources and services.